createdAt,value
2018-08-09T00:00:21.391Z,21.19
2018-08-09T00:01:21.368Z,21.18
2018-08-09T00:02:21.349Z,21.18
2018-08-09T00:03:21.325Z,21.22
2018-08-09T00:04:21.298Z,21.32
2018-08-09T00:05:21.268Z,21.32
2018-08-09T00:06:21.248Z,21.18
2018-08-09T00:07:21.221Z,21.22
2018-08-09T00:08:21.301Z,21.19
2018-08-09T00:09:21.175Z,21.10
2018-08-09T00:10:21.254Z,21.14
2018-08-09T00:11:21.126Z,21.10
2018-08-09T00:12:21.095Z,21.18
2018-08-09T00:13:21.130Z,21.16
2018-08-09T00:14:21.061Z,21.14
2018-08-09T00:15:21.040Z,21.16
2018-08-09T00:16:21.004Z,21.20
2018-08-09T00:17:21.000Z,21.08
2018-08-09T00:18:21.010Z,21.23
2018-08-09T00:19:20.932Z,21.13
2018-08-09T00:20:20.973Z,21.14
2018-08-09T00:21:20.879Z,21.08
2018-08-09T00:22:20.876Z,20.97
2018-08-09T00:23:20.892Z,20.97
2018-08-09T00:24:20.800Z,21.01
2018-08-09T00:25:20.809Z,20.98
2018-08-09T00:26:20.749Z,20.95
2018-08-09T00:27:20.726Z,20.97
2018-08-09T00:28:20.725Z,20.93
2018-08-09T00:29:20.696Z,21.03
2018-08-09T00:30:20.653Z,20.98
2018-08-09T00:31:20.641Z,20.92
2018-08-09T00:32:22.392Z,20.98
2018-08-09T00:33:23.368Z,20.80
2018-08-09T00:34:20.593Z,20.75
2018-08-09T00:35:20.534Z,20.70
2018-08-09T00:36:22.381Z,20.74
2018-08-09T00:37:20.485Z,20.67
2018-08-09T00:38:20.530Z,20.65
2018-08-09T00:39:20.439Z,20.61
2018-08-09T00:40:20.517Z,20.64
2018-08-09T00:41:20.382Z,20.74
2018-08-09T00:42:20.353Z,20.71
2018-08-09T00:43:20.330Z,20.67
2018-08-09T00:44:20.305Z,20.60
2018-08-09T00:45:20.318Z,20.56
2018-08-09T00:46:20.249Z,20.55
2018-08-09T00:47:20.238Z,20.50
2018-08-09T00:48:20.207Z,20.44
2018-08-09T00:49:20.294Z,20.41
2018-08-09T00:50:20.163Z,20.41
2018-08-09T00:51:20.200Z,20.42
2018-08-09T00:52:20.099Z,20.32
2018-08-09T00:53:20.084Z,20.46
2018-08-09T00:54:20.056Z,20.46
2018-08-09T00:55:20.025Z,20.48
2018-08-09T00:56:19.998Z,20.44
2018-08-09T00:57:20.041Z,20.48
2018-08-09T00:58:19.955Z,20.49
2018-08-09T00:59:19.981Z,20.46
2018-08-09T01:00:19.903Z,20.44
2018-08-09T01:01:19.971Z,20.39
2018-08-09T01:02:19.843Z,20.27
2018-08-09T01:03:19.856Z,20.30
2018-08-09T01:04:19.799Z,20.27
2018-08-09T01:05:19.784Z,20.29
2018-08-09T01:06:19.836Z,20.27
2018-08-09T01:07:19.726Z,20.33
2018-08-09T01:08:19.702Z,20.27
2018-08-09T01:09:19.739Z,20.26
2018-08-09T01:10:19.654Z,20.22
2018-08-09T01:11:19.670Z,20.17
2018-08-09T01:12:19.598Z,20.09
2018-08-09T01:13:19.571Z,20.11
2018-08-09T01:14:19.544Z,20.11
2018-08-09T01:15:19.535Z,20.07
2018-08-09T01:16:19.497Z,20.02
2018-08-09T01:17:19.468Z,20.07
2018-08-09T01:18:19.450Z,20.07
2018-08-09T01:19:19.417Z,20.05
2018-08-09T01:20:19.393Z,20.02
2018-08-09T01:21:19.367Z,20.11
2018-08-09T01:22:21.892Z,20.19
2018-08-09T01:23:19.326Z,20.14
2018-08-09T01:24:19.414Z,20.18
2018-08-09T01:25:19.267Z,20.25
2018-08-09T01:26:19.256Z,20.19
2018-08-09T01:27:19.299Z,20.07
2018-08-09T01:28:19.209Z,20.18
2018-08-09T01:29:19.205Z,20.09
2018-08-09T01:30:19.141Z,20.09
2018-08-09T01:31:19.137Z,20.08
2018-08-09T01:32:19.104Z,20.07
2018-08-09T01:33:19.109Z,20.05
2018-08-09T01:34:19.103Z,20.17
2018-08-09T01:35:19.037Z,20.25
2018-08-09T01:36:19.076Z,20.26
2018-08-09T01:37:18.965Z,20.22
2018-08-09T01:38:20.898Z,20.25
2018-08-09T01:39:18.915Z,20.37
2018-08-09T01:40:18.909Z,20.39
2018-08-09T01:41:18.863Z,20.44
2018-08-09T01:42:18.878Z,20.46
2018-08-09T01:43:18.807Z,20.44
2018-08-09T01:44:18.864Z,20.36
2018-08-09T01:45:18.829Z,20.27
2018-08-09T01:46:18.739Z,20.25
2018-08-09T01:47:18.861Z,20.27
2018-08-09T01:48:18.688Z,20.27
2018-08-09T01:49:18.655Z,20.26
2018-08-09T01:50:18.667Z,20.27
2018-08-09T01:51:18.612Z,20.26
2018-08-09T01:52:21.406Z,20.25
2018-08-09T01:53:18.558Z,20.29
2018-08-09T01:54:51.802Z,20.30
2018-08-09T01:56:21.410Z,20.26
2018-08-09T01:57:21.470Z,20.23
2018-08-09T01:59:21.737Z,20.22
2018-08-09T02:00:21.779Z,20.22
2018-08-09T02:02:27.524Z,20.18
2018-08-09T02:03:27.553Z,20.22
2018-08-09T02:05:23.454Z,20.26
2018-08-09T02:06:23.342Z,20.18
2018-08-09T02:08:23.825Z,20.12
2018-08-09T02:09:23.727Z,20.12
2018-08-09T02:11:26.656Z,20.15
2018-08-09T02:12:26.580Z,20.09
2018-08-09T02:14:29.467Z,20.08
2018-08-09T02:15:29.516Z,20.15
2018-08-09T02:17:29.890Z,20.08
2018-08-09T02:18:29.739Z,20.07
2018-08-09T02:20:24.208Z,19.94
2018-08-09T02:21:24.136Z,19.84
2018-08-09T02:23:27.503Z,19.87
2018-08-09T02:24:27.514Z,19.86
2018-08-09T02:26:34.347Z,19.90
2018-08-09T02:27:34.256Z,19.89
2018-08-09T02:29:37.169Z,19.92
2018-08-09T02:30:37.087Z,19.92
2018-08-09T02:32:31.428Z,19.89
2018-08-09T02:33:31.391Z,19.82
2018-08-09T02:35:27.318Z,19.78
2018-08-09T02:36:27.327Z,19.75
2018-08-09T02:38:33.144Z,19.74
2018-08-09T02:39:33.157Z,19.78
2018-08-09T02:41:48.985Z,19.74
2018-08-09T02:42:48.976Z,19.79
2018-08-09T02:44:49.406Z,19.79
2018-08-09T02:45:49.403Z,19.74
2018-08-09T02:47:45.466Z,19.89
2018-08-09T02:48:45.308Z,19.78
2018-08-09T02:50:48.176Z,19.60
2018-08-09T02:51:48.162Z,19.60
2018-08-09T02:53:56.554Z,19.59
2018-08-09T02:54:56.486Z,19.54
2018-08-09T02:57:00.769Z,19.68
2018-08-09T02:58:00.773Z,19.59
2018-08-09T02:59:58.690Z,19.63
2018-08-09T03:00:58.539Z,19.72
2018-08-09T03:02:58.894Z,19.84
2018-08-09T03:03:58.867Z,19.82
2018-08-09T03:06:02.363Z,19.75
2018-08-09T03:07:02.221Z,19.74
2018-08-09T03:09:00.084Z,19.78
2018-08-09T03:10:00.039Z,19.86
2018-08-09T03:11:58.920Z,19.96
2018-08-09T03:12:58.824Z,19.84
2018-08-09T03:15:02.235Z,19.94
2018-08-09T03:16:02.169Z,19.81
2018-08-09T03:17:55.534Z,19.96
2018-08-09T03:18:55.509Z,20.04
2018-08-09T03:20:53.420Z,19.97
2018-08-09T03:21:53.384Z,19.97
2018-08-09T03:23:50.232Z,20.09
2018-08-09T03:24:50.187Z,20.12
2018-08-09T03:26:46.057Z,20.09
2018-08-09T03:27:46.003Z,20.08
2018-08-09T03:29:41.904Z,20.14
2018-08-09T03:30:41.838Z,20.17
2018-08-09T03:32:47.690Z,20.32
2018-08-09T03:33:47.644Z,20.39
2018-08-09T03:35:42.011Z,20.46
2018-08-09T03:36:41.968Z,20.48
2018-08-09T03:38:46.301Z,20.39
2018-08-09T03:39:46.269Z,20.48
2018-08-09T03:41:42.149Z,20.30
2018-08-09T03:42:42.119Z,20.29
2018-08-09T03:44:37.965Z,20.26
2018-08-09T03:45:37.919Z,20.25
2018-08-09T03:47:33.787Z,20.26
2018-08-09T03:48:33.727Z,20.29
2018-08-09T03:50:38.141Z,20.22
2018-08-09T03:51:38.067Z,20.29
2018-08-09T03:53:42.581Z,20.26
2018-08-09T03:54:42.551Z,20.33
2018-08-09T03:56:46.907Z,20.34
2018-08-09T03:57:46.857Z,20.37
2018-08-09T03:59:41.277Z,20.32
2018-08-09T04:00:41.159Z,20.39
2018-08-09T04:02:36.107Z,20.34
2018-08-09T04:03:35.484Z,20.37
2018-08-09T04:05:28.848Z,20.50
2018-08-09T04:06:28.798Z,20.58
2018-08-09T04:08:26.642Z,20.60
2018-08-09T04:09:26.630Z,20.61
2018-08-09T04:11:21.009Z,20.58
2018-08-09T04:12:20.955Z,20.61
2018-08-09T04:14:24.818Z,20.67
2018-08-09T04:15:24.742Z,20.65
2018-08-09T04:17:19.123Z,20.71
2018-08-09T04:18:19.049Z,20.73
2018-08-09T04:20:25.912Z,20.80
2018-08-09T04:21:25.854Z,20.80
2018-08-09T04:23:33.710Z,20.83
2018-08-09T04:24:33.691Z,20.93
2018-08-09T04:26:36.693Z,20.82
2018-08-09T04:27:36.545Z,20.89
2018-08-09T04:29:39.945Z,20.88
2018-08-09T04:30:39.946Z,20.88
2018-08-09T04:32:43.788Z,20.97
2018-08-09T04:33:43.763Z,20.98
2018-08-09T04:35:38.161Z,20.95
2018-08-09T04:36:38.072Z,20.92
2018-08-09T04:38:53.929Z,20.92
2018-08-09T04:39:53.888Z,20.82
2018-08-09T04:42:15.794Z,20.93
2018-08-09T04:43:15.711Z,20.98
2018-08-09T04:45:32.160Z,20.95
2018-08-09T04:46:32.141Z,21.00
2018-08-09T04:48:29.910Z,20.90
2018-08-09T04:49:29.883Z,21.00
2018-08-09T04:51:30.244Z,21.08
2018-08-09T04:52:30.191Z,21.07
2018-08-09T04:54:34.063Z,21.11
2018-08-09T04:55:34.038Z,21.14
2018-08-09T04:57:38.402Z,21.16
2018-08-09T04:58:38.346Z,21.14
2018-08-09T05:00:34.174Z,21.25
2018-08-09T05:01:34.149Z,21.26
2018-08-09T05:03:37.545Z,21.18
2018-08-09T05:04:37.497Z,21.16
2018-08-09T05:06:41.844Z,21.20
2018-08-09T05:07:41.822Z,21.19
2018-08-09T05:09:44.655Z,21.19
2018-08-09T05:10:44.627Z,21.23
2018-08-09T05:12:39.525Z,21.38
2018-08-09T05:13:38.956Z,21.44
2018-08-09T05:15:37.830Z,21.45
2018-08-09T05:16:37.749Z,21.45
2018-08-09T05:18:42.112Z,21.40
2018-08-09T05:19:42.095Z,21.35
2018-08-09T05:21:46.654Z,21.40
2018-08-09T05:22:46.391Z,21.47
2018-08-09T05:25:02.285Z,21.43
2018-08-09T05:26:02.255Z,21.45
2018-08-09T05:28:10.120Z,21.51
2018-08-09T05:29:10.128Z,21.44
2018-08-09T05:31:16.339Z,21.48
2018-08-09T05:32:16.024Z,21.60
2018-08-09T05:34:26.334Z,21.62
2018-08-09T05:35:26.542Z,21.60
2018-08-09T05:37:31.217Z,21.47
2018-08-09T05:38:30.671Z,21.43
2018-08-09T05:40:36.720Z,21.59
2018-08-09T05:41:36.581Z,21.55
2018-08-09T05:43:39.526Z,21.56
2018-08-09T05:44:39.316Z,21.69
2018-08-09T05:47:04.301Z,21.67
2018-08-09T05:48:04.153Z,21.78
2018-08-09T05:49:04.172Z,21.80
2018-08-09T05:50:04.204Z,21.90
2018-08-09T05:51:04.073Z,21.90
2018-08-09T05:52:04.060Z,21.88
2018-08-09T05:53:04.231Z,21.97
2018-08-09T05:54:04.158Z,21.91
2018-08-09T05:55:04.134Z,21.98
2018-08-09T05:56:04.031Z,21.97
2018-08-09T05:57:03.948Z,21.96
2018-08-09T05:58:03.894Z,21.97
2018-08-09T05:59:03.873Z,21.98
2018-08-09T06:00:03.850Z,21.93
2018-08-09T06:01:03.823Z,21.88
2018-08-09T06:02:03.804Z,21.81
2018-08-09T06:03:03.774Z,21.71
2018-08-09T06:04:03.746Z,21.63
2018-08-09T06:05:03.722Z,21.81
2018-08-09T06:06:03.693Z,21.67
2018-08-09T06:07:03.686Z,21.65
2018-08-09T06:08:03.661Z,21.66
2018-08-09T06:09:25.356Z,21.59
2018-08-09T06:11:11.600Z,21.71
2018-08-09T06:12:11.668Z,21.77
2018-08-09T06:14:24.423Z,21.84
2018-08-09T06:15:24.483Z,21.98
2018-08-09T06:17:30.403Z,22.04
2018-08-09T06:18:30.329Z,22.13
2018-08-09T06:20:46.583Z,22.30
2018-08-09T06:21:46.300Z,22.28
2018-08-09T06:23:51.512Z,22.43
2018-08-09T06:24:51.778Z,22.48
2018-08-09T06:27:01.666Z,22.44
2018-08-09T06:28:01.766Z,22.49
2018-08-09T06:30:08.113Z,22.44
2018-08-09T06:31:08.403Z,22.46
2018-08-09T06:33:15.027Z,22.58
2018-08-09T06:34:13.822Z,22.61
2018-08-09T06:35:13.371Z,22.70
2018-08-09T06:36:14.022Z,22.76
2018-08-09T06:37:13.522Z,22.77
2018-08-09T06:38:14.716Z,22.70
2018-08-09T06:39:14.942Z,22.74
2018-08-09T06:40:14.206Z,22.74
2018-08-09T06:41:14.573Z,22.85
2018-08-09T06:42:12.988Z,22.91
2018-08-09T06:43:12.622Z,22.85
2018-08-09T06:44:12.689Z,22.67
2018-08-09T06:45:12.585Z,22.78
2018-08-09T06:46:12.562Z,22.76
2018-08-09T06:47:12.535Z,22.67
2018-08-09T06:48:12.593Z,22.76
2018-08-09T06:49:12.622Z,22.62
2018-08-09T06:50:12.471Z,22.73
2018-08-09T06:51:12.540Z,22.64
2018-08-09T06:52:12.405Z,22.73
2018-08-09T06:53:12.476Z,22.64
2018-08-09T06:54:12.378Z,22.73
2018-08-09T06:55:12.339Z,22.73
2018-08-09T06:56:12.331Z,22.73
2018-08-09T06:57:12.280Z,22.76
2018-08-09T06:58:12.289Z,22.85
2018-08-09T06:59:12.261Z,22.88
2018-08-09T07:00:12.343Z,22.88
2018-08-09T07:01:12.195Z,22.99
2018-08-09T07:02:12.168Z,22.96
2018-08-09T07:03:12.191Z,23.01
2018-08-09T07:04:12.118Z,23.01
2018-08-09T07:05:12.211Z,23.01
2018-08-09T07:06:12.079Z,22.88
2018-08-09T07:07:12.138Z,22.78
2018-08-09T07:08:12.032Z,23.04
2018-08-09T07:09:12.117Z,23.08
2018-08-09T07:10:12.062Z,23.26
2018-08-09T07:11:11.954Z,23.33
2018-08-09T07:12:11.935Z,23.39
2018-08-09T07:13:11.997Z,23.37
2018-08-09T07:14:11.890Z,23.31
2018-08-09T07:15:11.867Z,23.44
2018-08-09T07:16:11.929Z,23.44
2018-08-09T07:17:11.808Z,23.44
2018-08-09T07:18:11.838Z,23.60
2018-08-09T07:19:11.769Z,23.85
2018-08-09T07:20:11.801Z,24.00
2018-08-09T07:21:11.723Z,24.22
2018-08-09T07:22:11.726Z,24.31
2018-08-09T07:23:11.674Z,24.21
2018-08-09T07:24:11.671Z,24.21
2018-08-09T07:25:11.721Z,24.16
2018-08-09T07:26:11.704Z,24.23
2018-08-09T07:27:11.603Z,24.44
2018-08-09T07:28:11.565Z,24.48
2018-08-09T07:29:11.533Z,24.51
2018-08-09T07:32:37.888Z,24.55
2018-08-09T07:32:57.480Z,24.47
2018-08-09T07:34:59.279Z,24.33
2018-08-09T07:36:00.357Z,24.41
2018-08-09T07:38:10.598Z,24.48
2018-08-09T07:39:11.012Z,24.47
2018-08-09T07:40:10.301Z,24.40
2018-08-09T07:41:10.401Z,24.26
2018-08-09T07:42:09.990Z,24.22
2018-08-09T07:43:11.710Z,24.26
2018-08-09T07:44:11.529Z,24.19
2018-08-09T07:46:56.287Z,24.21
2018-08-09T07:47:56.563Z,24.10
2018-08-09T07:50:07.750Z,24.04
2018-08-09T07:51:08.143Z,24.10
2018-08-09T07:52:07.490Z,24.18
2018-08-09T07:53:07.396Z,24.31
2018-08-09T07:54:07.527Z,24.33
2018-08-09T07:55:07.258Z,24.26
2018-08-09T07:56:07.152Z,24.38
2018-08-09T07:57:07.230Z,24.53
2018-08-09T07:58:07.122Z,24.56
2018-08-09T07:59:07.079Z,24.52
2018-08-09T08:00:07.225Z,24.43
2018-08-09T08:01:07.027Z,24.43
2018-08-09T08:02:07.009Z,24.55
2018-08-09T08:03:06.976Z,24.60
2018-08-09T08:04:06.974Z,24.59
2018-08-09T08:05:06.953Z,24.75
2018-08-09T08:06:06.954Z,24.82
2018-08-09T08:07:06.892Z,24.82
2018-08-09T08:08:06.875Z,24.78
2018-08-09T08:09:06.855Z,24.86
2018-08-09T08:10:06.832Z,24.94
2018-08-09T08:11:06.817Z,24.93
2018-08-09T08:12:06.835Z,25.04
2018-08-09T08:13:06.799Z,25.12
2018-08-09T08:14:06.742Z,25.06
2018-08-09T08:15:06.777Z,25.28
2018-08-09T08:16:06.700Z,25.46
2018-08-09T08:17:06.684Z,25.30
2018-08-09T08:18:06.655Z,25.23
2018-08-09T08:19:06.635Z,25.28
2018-08-09T08:20:06.824Z,25.31
2018-08-09T08:21:06.578Z,25.28
2018-08-09T08:22:06.575Z,25.11
2018-08-09T08:23:06.561Z,24.97
2018-08-09T08:24:06.524Z,24.81
2018-08-09T08:25:06.495Z,24.82
2018-08-09T08:26:06.484Z,24.84
2018-08-09T08:27:06.459Z,24.89
2018-08-09T08:28:06.430Z,24.90
2018-08-09T08:29:06.446Z,24.96
2018-08-09T08:30:06.389Z,25.04
2018-08-09T08:31:06.369Z,25.03
2018-08-09T08:32:06.342Z,25.09
2018-08-09T08:33:06.323Z,25.11
2018-08-09T08:34:06.295Z,25.18
2018-08-09T08:35:06.274Z,25.21
2018-08-09T08:36:06.264Z,25.14
2018-08-09T08:37:06.233Z,25.09
2018-08-09T08:38:06.207Z,25.03
2018-08-09T08:39:06.187Z,24.93
2018-08-09T08:40:06.170Z,24.86
2018-08-09T08:41:06.147Z,24.93
2018-08-09T08:42:06.120Z,24.85
2018-08-09T08:43:06.136Z,24.68
2018-08-09T08:44:06.079Z,24.71
2018-08-09T08:45:06.053Z,24.71
2018-08-09T08:46:06.041Z,24.60
2018-08-09T08:47:05.999Z,24.56
2018-08-09T08:48:05.994Z,24.74
2018-08-09T08:49:05.958Z,24.78
2018-08-09T08:50:05.945Z,24.82
2018-08-09T08:51:05.938Z,24.91
2018-08-09T08:52:05.893Z,24.99
2018-08-09T08:53:05.908Z,25.00
2018-08-09T08:54:05.867Z,25.09
2018-08-09T08:55:05.840Z,25.15
2018-08-09T08:56:05.799Z,25.28
2018-08-09T08:57:05.788Z,25.26
2018-08-09T08:58:05.767Z,25.31
2018-08-09T08:59:05.729Z,25.23
2018-08-09T09:00:05.798Z,25.40
2018-08-09T09:01:05.719Z,25.16
2018-08-09T09:02:05.713Z,25.33
2018-08-09T09:03:05.663Z,25.30
2018-08-09T09:04:05.622Z,25.34
2018-08-09T09:05:05.615Z,25.41
2018-08-09T09:06:05.581Z,25.40
2018-08-09T09:07:05.628Z,25.37
2018-08-09T09:08:05.536Z,25.36
2018-08-09T09:09:05.550Z,25.34
2018-08-09T09:10:05.498Z,25.16
2018-08-09T09:11:05.466Z,25.15
2018-08-09T09:12:05.451Z,25.11
2018-08-09T09:13:05.426Z,25.12
2018-08-09T09:14:05.411Z,24.90
2018-08-09T09:15:05.386Z,24.99
2018-08-09T09:16:05.415Z,25.03
2018-08-09T09:17:05.336Z,25.01
2018-08-09T09:18:05.314Z,25.03
2018-08-09T09:19:05.309Z,25.06
2018-08-09T09:20:05.277Z,25.03
2018-08-09T09:21:05.247Z,25.01
2018-08-09T09:22:05.241Z,25.12
2018-08-09T09:23:05.232Z,25.18
2018-08-09T09:24:05.192Z,25.04
2018-08-09T09:25:05.215Z,24.99
2018-08-09T09:26:05.154Z,25.08
2018-08-09T09:27:05.202Z,25.06
2018-08-09T09:28:05.093Z,25.09
2018-08-09T09:29:05.099Z,25.11
2018-08-09T09:30:05.067Z,25.15
2018-08-09T09:31:05.031Z,25.18
2018-08-09T09:32:05.013Z,25.16
2018-08-09T09:33:05.005Z,25.18
2018-08-09T09:34:05.009Z,25.26
2018-08-09T09:35:04.980Z,25.33
2018-08-09T09:36:04.934Z,25.55
2018-08-09T09:37:04.952Z,25.77
2018-08-09T09:38:04.870Z,25.82
2018-08-09T09:39:04.847Z,25.86
2018-08-09T09:40:04.866Z,25.82
2018-08-09T09:41:04.847Z,25.75
2018-08-09T09:42:04.784Z,25.93
2018-08-09T09:43:04.773Z,26.19
2018-08-09T09:44:04.767Z,26.34
2018-08-09T09:45:04.723Z,26.48
2018-08-09T09:46:04.700Z,26.26
2018-08-09T09:47:04.759Z,26.01
2018-08-09T09:48:04.652Z,26.01
2018-08-09T09:49:04.632Z,26.07
2018-08-09T09:50:04.613Z,25.96
2018-08-09T09:51:04.602Z,26.05
2018-08-09T09:52:04.577Z,26.05
2018-08-09T09:53:04.555Z,26.23
2018-08-09T09:54:04.544Z,26.11
2018-08-09T09:55:04.552Z,26.07
2018-08-09T09:56:04.497Z,26.23
2018-08-09T09:57:04.469Z,26.20
2018-08-09T09:58:04.447Z,26.16
2018-08-09T09:59:04.451Z,26.20
2018-08-09T10:00:04.430Z,26.33
2018-08-09T10:01:04.380Z,26.39
2018-08-09T10:02:04.488Z,26.20
2018-08-09T10:03:04.383Z,26.30
2018-08-09T10:04:04.368Z,26.43
2018-08-09T10:05:04.306Z,26.52
2018-08-09T10:06:04.286Z,26.70
2018-08-09T10:07:04.336Z,26.64
2018-08-09T10:08:04.267Z,26.88
2018-08-09T10:09:04.223Z,26.82
2018-08-09T10:10:04.193Z,27.03
2018-08-09T10:11:04.191Z,27.25
2018-08-09T10:12:04.171Z,27.37
2018-08-09T10:13:04.139Z,27.34
2018-08-09T10:14:04.118Z,27.45
2018-08-09T10:15:04.086Z,27.50
2018-08-09T10:16:04.071Z,27.57
2018-08-09T10:17:04.058Z,27.60
2018-08-09T10:18:04.054Z,27.78
2018-08-09T10:19:04.013Z,27.91
2018-08-09T10:20:03.993Z,27.97
2018-08-09T10:21:03.961Z,28.06
2018-08-09T10:22:03.950Z,28.30
2018-08-09T10:23:03.925Z,28.56
2018-08-09T10:24:03.945Z,28.79
2018-08-09T10:25:03.890Z,28.83
2018-08-09T10:26:03.881Z,28.84
2018-08-09T10:27:03.853Z,28.86
2018-08-09T10:28:03.846Z,28.72
2018-08-09T10:29:03.805Z,28.91
2018-08-09T10:30:03.810Z,29.12
2018-08-09T10:31:03.774Z,29.10
2018-08-09T10:32:03.748Z,29.07
2018-08-09T10:33:03.737Z,28.83
2018-08-09T10:34:03.715Z,28.75
2018-08-09T10:35:03.684Z,28.83
2018-08-09T10:36:03.675Z,28.91
2018-08-09T10:37:03.656Z,28.96
2018-08-09T10:38:03.639Z,29.13
2018-08-09T10:39:03.615Z,29.31
2018-08-09T10:40:03.600Z,29.36
2018-08-09T10:41:03.577Z,29.61
2018-08-09T10:42:03.549Z,29.52
2018-08-09T10:43:03.570Z,29.41
2018-08-09T10:44:03.541Z,29.44
2018-08-09T10:45:03.505Z,29.70
2018-08-09T10:46:03.478Z,29.98
2018-08-09T10:47:03.451Z,30.07
2018-08-09T10:48:03.464Z,30.07
2018-08-09T10:49:03.431Z,30.17
2018-08-09T10:50:03.424Z,30.36
2018-08-09T10:51:03.389Z,30.46
2018-08-09T10:52:03.359Z,30.48
2018-08-09T10:53:03.365Z,30.55
2018-08-09T10:54:03.324Z,30.58
2018-08-09T10:55:03.305Z,30.74
2018-08-09T10:56:03.286Z,30.62
2018-08-09T10:57:03.276Z,30.48
2018-08-09T10:58:03.253Z,30.55
2018-08-09T10:59:03.235Z,30.51
2018-08-09T11:00:03.207Z,30.52
2018-08-09T11:01:03.208Z,30.45
2018-08-09T11:02:03.176Z,30.46
2018-08-09T11:03:03.162Z,30.33
2018-08-09T11:04:03.137Z,30.24
2018-08-09T11:05:03.126Z,30.49
2018-08-09T11:06:03.106Z,30.52
2018-08-09T11:07:03.087Z,30.70
2018-08-09T11:08:03.071Z,30.82
2018-08-09T11:09:03.097Z,30.99
2018-08-09T11:10:03.039Z,30.74
2018-08-09T11:11:03.016Z,30.85
2018-08-09T11:12:03.057Z,30.75
2018-08-09T11:13:02.985Z,30.52
2018-08-09T11:14:02.957Z,30.59
2018-08-09T11:15:02.961Z,30.58
2018-08-09T11:16:02.934Z,30.89
2018-08-09T11:17:02.946Z,30.89
2018-08-09T11:18:02.893Z,30.95
2018-08-09T11:19:02.872Z,31.04
2018-08-09T11:20:02.860Z,30.75
2018-08-09T11:21:02.840Z,30.73
2018-08-09T11:22:02.817Z,30.73
2018-08-09T11:23:02.801Z,30.73
2018-08-09T11:24:02.796Z,30.75
2018-08-09T11:25:02.806Z,30.82
2018-08-09T11:26:02.744Z,30.85
2018-08-09T11:27:02.740Z,30.82
2018-08-09T11:28:02.737Z,30.59
2018-08-09T11:29:02.696Z,30.55
2018-08-09T11:30:02.677Z,30.28
2018-08-09T11:31:02.679Z,30.45
2018-08-09T11:32:02.727Z,30.33
2018-08-09T11:33:02.628Z,30.39
2018-08-09T11:34:02.669Z,30.74
2018-08-09T11:35:02.665Z,30.74
2018-08-09T11:36:02.581Z,31.05
2018-08-09T11:37:02.719Z,31.30
2018-08-09T11:38:02.564Z,32.23
2018-08-09T11:39:02.513Z,31.84
2018-08-09T11:40:02.503Z,31.67
2018-08-09T11:41:02.477Z,31.78
2018-08-09T11:42:02.462Z,31.74
2018-08-09T11:43:02.448Z,32.02
2018-08-09T11:44:02.454Z,32.57
2018-08-09T11:45:02.453Z,32.83
2018-08-09T11:46:02.397Z,32.97
2018-08-09T11:47:02.387Z,33.12
2018-08-09T11:48:02.367Z,32.70
2018-08-09T11:49:02.352Z,32.60
2018-08-09T11:50:02.331Z,32.79
2018-08-09T11:51:02.315Z,32.94
2018-08-09T11:52:02.298Z,33.14
2018-08-09T11:53:02.300Z,32.77
2018-08-09T11:54:02.260Z,32.94
2018-08-09T11:55:02.241Z,32.92
2018-08-09T11:56:02.234Z,33.03
2018-08-09T11:57:02.258Z,32.94
2018-08-09T11:58:02.200Z,32.82
2018-08-09T11:59:02.197Z,32.65
2018-08-09T12:00:02.182Z,32.53
2018-08-09T12:01:02.157Z,32.23
2018-08-09T12:02:02.212Z,31.95
2018-08-09T12:03:02.120Z,31.33
2018-08-09T12:04:02.117Z,31.12
2018-08-09T12:05:02.108Z,31.12
2018-08-09T12:06:02.085Z,31.10
2018-08-09T12:07:02.081Z,31.04
2018-08-09T12:08:02.040Z,30.96
2018-08-09T12:09:02.029Z,30.85
2018-08-09T12:10:02.044Z,30.89
2018-08-09T12:11:01.987Z,30.67
2018-08-09T12:12:01.966Z,30.62
2018-08-09T12:13:01.971Z,30.53
2018-08-09T12:14:01.931Z,30.52
2018-08-09T12:15:02.004Z,30.43
2018-08-09T12:16:01.920Z,30.45
2018-08-09T12:17:01.888Z,30.39
2018-08-09T12:18:01.866Z,30.39
2018-08-09T12:19:01.872Z,30.51
2018-08-09T12:20:01.867Z,30.52
2018-08-09T12:21:01.973Z,30.43
2018-08-09T12:22:03.843Z,30.24
2018-08-09T12:23:01.820Z,30.49
2018-08-09T12:24:01.759Z,30.46
2018-08-09T12:25:01.744Z,30.30
2018-08-09T12:26:01.721Z,30.40
2018-08-09T12:27:01.752Z,30.26
2018-08-09T12:28:01.699Z,30.46
2018-08-09T12:29:01.675Z,30.53
2018-08-09T12:30:01.721Z,30.60
2018-08-09T12:31:01.694Z,30.59
2018-08-09T12:32:01.652Z,30.64
2018-08-09T12:33:01.595Z,30.75
2018-08-09T12:34:01.580Z,30.88
2018-08-09T12:35:01.558Z,30.83
2018-08-09T12:36:01.541Z,30.80
2018-08-09T12:37:01.522Z,30.74
2018-08-09T12:38:01.504Z,30.58
2018-08-09T12:39:01.559Z,30.43
2018-08-09T12:40:01.488Z,30.35
2018-08-09T12:41:01.453Z,30.20
2018-08-09T12:42:01.438Z,30.10
2018-08-09T12:43:01.421Z,30.11
2018-08-09T12:44:01.393Z,30.07
2018-08-09T12:45:01.380Z,29.99
2018-08-09T12:46:01.358Z,30.00
2018-08-09T12:47:01.336Z,29.95
2018-08-09T12:48:01.333Z,29.95
2018-08-09T12:49:01.303Z,29.93
2018-08-09T12:50:01.288Z,29.81
2018-08-09T12:51:01.292Z,29.77
2018-08-09T12:52:01.245Z,29.66
2018-08-09T12:53:01.236Z,29.77
2018-08-09T12:54:01.211Z,29.84
2018-08-09T12:55:01.201Z,29.89
2018-08-09T12:56:01.172Z,30.07
2018-08-09T12:57:01.162Z,30.02
2018-08-09T12:58:01.130Z,30.11
2018-08-09T12:59:01.115Z,30.11
2018-08-09T13:00:01.247Z,30.11
2018-08-09T13:01:01.086Z,30.08
2018-08-09T13:02:01.060Z,30.08
2018-08-09T13:03:01.052Z,30.08
2018-08-09T13:04:01.020Z,30.18
2018-08-09T13:05:01.010Z,30.15
2018-08-09T13:06:00.981Z,30.21
2018-08-09T13:07:00.963Z,30.20
2018-08-09T13:08:01.003Z,30.22
2018-08-09T13:09:00.936Z,30.21
2018-08-09T13:10:00.927Z,30.29
2018-08-09T13:11:00.915Z,30.26
2018-08-09T13:12:00.868Z,30.29
2018-08-09T13:13:00.874Z,30.37
2018-08-09T13:14:00.837Z,30.52
2018-08-09T13:15:00.813Z,30.49
2018-08-09T13:16:00.787Z,30.52
2018-08-09T13:17:00.790Z,30.52
2018-08-09T13:18:00.759Z,30.53
2018-08-09T13:19:00.743Z,30.65
2018-08-09T13:20:00.724Z,30.75
2018-08-09T13:21:00.706Z,30.85
2018-08-09T13:22:00.680Z,31.01
2018-08-09T13:23:00.666Z,30.97
2018-08-09T13:24:00.644Z,30.92
2018-08-09T13:25:00.622Z,30.99
2018-08-09T13:26:00.603Z,31.05
2018-08-09T13:27:00.592Z,31.05
2018-08-09T13:28:00.561Z,31.07
2018-08-09T13:29:00.549Z,31.04
2018-08-09T13:30:00.532Z,30.95
2018-08-09T13:31:00.508Z,31.04
2018-08-09T13:32:00.510Z,31.11
2018-08-09T13:33:00.477Z,31.19
2018-08-09T13:34:00.461Z,31.22
2018-08-09T13:35:00.442Z,31.24
2018-08-09T13:36:00.414Z,31.17
2018-08-09T13:37:00.403Z,31.22
2018-08-09T13:38:00.406Z,31.24
2018-08-09T13:39:00.391Z,31.22
2018-08-09T13:40:00.348Z,31.26
2018-08-09T13:41:00.327Z,31.33
2018-08-09T13:42:00.312Z,31.02
2018-08-09T13:43:00.288Z,31.08
2018-08-09T13:44:00.276Z,30.92
2018-08-09T13:45:00.249Z,30.90
2018-08-09T13:46:00.260Z,30.93
2018-08-09T13:47:00.222Z,30.92
2018-08-09T13:48:00.226Z,31.02
2018-08-09T13:49:00.175Z,30.95
2018-08-09T13:50:00.175Z,30.83
2018-08-09T13:51:00.157Z,30.92
2018-08-09T13:52:00.131Z,30.85
2018-08-09T13:53:00.124Z,30.80
2018-08-09T13:54:00.096Z,30.58
2018-08-09T13:55:00.084Z,30.39
2018-08-09T13:56:00.043Z,30.20
2018-08-09T13:57:00.138Z,30.07
2018-08-09T13:58:00.033Z,30.00
2018-08-09T13:59:00.011Z,29.96
2018-08-09T13:59:59.997Z,29.95
2018-08-09T14:00:59.960Z,30.05
2018-08-09T14:01:59.939Z,29.99
2018-08-09T14:02:59.978Z,30.08
2018-08-09T14:03:59.958Z,30.05
2018-08-09T14:04:59.888Z,30.05
2018-08-09T14:05:59.883Z,30.07
2018-08-09T14:06:59.865Z,30.08
2018-08-09T14:07:59.818Z,30.13
2018-08-09T14:08:59.809Z,30.10
2018-08-09T14:09:59.809Z,29.92
2018-08-09T14:10:59.777Z,29.95
2018-08-09T14:11:59.754Z,29.65
2018-08-09T14:12:59.747Z,29.58
2018-08-09T14:13:59.720Z,29.34
2018-08-09T14:14:59.743Z,29.24
2018-08-09T14:15:59.677Z,29.10
2018-08-09T14:16:59.820Z,28.90
2018-08-09T14:17:59.654Z,28.90
2018-08-09T14:19:00.431Z,28.86
2018-08-09T14:19:59.596Z,28.80
2018-08-09T14:20:59.624Z,28.87
2018-08-09T14:21:59.554Z,28.80
2018-08-09T14:22:59.546Z,28.93
2018-08-09T14:23:59.532Z,29.09
2018-08-09T14:24:59.523Z,29.06
2018-08-09T14:25:59.484Z,29.15
2018-08-09T14:26:59.471Z,29.24
2018-08-09T14:27:59.439Z,29.09